sensor_id;sensor_type;location;lat;lon;timestamp;P1;durP1;ratioP1;P2;durP2;ratioP2
253;SDS011;590;48.772;8.846;2023-06-26T00:00:06;8.33;;;7.90;;
253;SDS011;590;48.772;8.846;2023-06-26T00:02:35;7.47;;;7.07;;
253;SDS011;590;48.772;8.846;2023-06-26T00:05:03;8.13;;;7.70;;
253;SDS011;590;48.772;8.846;2023-06-26T00:07:33;9.90;;;8.70;;
253;SDS011;590;48.772;8.846;2023-06-26T00:10:01;9.33;;;8.83;;
253;SDS011;590;48.772;8.846;2023-06-26T00:12:30;9.03;;;8.43;;
253;SDS011;590;48.772;8.846;2023-06-26T00:14:59;9.30;;;8.80;;
253;SDS011;590;48.772;8.846;2023-06-26T00:17:27;8.80;;;7.77;;
253;SDS011;590;48.772;8.846;2023-06-26T00:19:55;9.30;;;8.80;;
253;SDS011;590;48.772;8.846;2023-06-26T00:22:23;9.30;;;8.80;;
253;SDS011;590;48.772;8.846;2023-06-26T00:24:53;8.83;;;8.33;;
253;SDS011;590;48.772;8.846;2023-06-26T00:27:21;8.60;;;8.10;;
253;SDS011;590;48.772;8.846;2023-06-26T00:29:49;9.57;;;9.07;;
253;SDS011;590;48.772;8.846;2023-06-26T00:32:19;8.67;;;8.17;;
253;SDS011;590;48.772;8.846;2023-06-26T00:34:47;9.37;;;8.83;;
253;SDS011;590;48.772;8.846;2023-06-26T00:37:15;8.80;;;8.30;;
253;SDS011;590;48.772;8.846;2023-06-26T00:39:43;8.60;;;8.17;;
253;SDS011;590;48.772;8.846;2023-06-26T00:42:12;9.00;;;8.50;;
253;SDS011;590;48.772;8.846;2023-06-26T00:44:40;8.90;;;8.40;;
253;SDS011;590;48.772;8.846;2023-06-26T00:47:08;9.90;;;9.40;;
253;SDS011;590;48.772;8.846;2023-06-26T00:49:39;9.33;;;8.83;;
253;SDS011;590;48.772;8.846;2023-06-26T00:52:07;8.73;;;8.23;;
253;SDS011;590;48.772;8.846;2023-06-26T00:54:35;7.77;;;7.37;;
253;SDS011;590;48.772;8.846;2023-06-26T00:57:03;8.83;;;8.33;;
253;SDS011;590;48.772;8.846;2023-06-26T00:59:33;8.97;;;8.47;;
253;SDS011;590;48.772;8.846;2023-06-26T01:02:01;9.03;;;8.53;;
253;SDS011;590;48.772;8.846;2023-06-26T01:04:30;9.00;;;8.50;;
253;SDS011;590;48.772;8.846;2023-06-26T01:06:59;9.47;;;8.80;;
253;SDS011;590;48.772;8.846;2023-06-26T01:09:30;8.83;;;8.33;;
253;SDS011;590;48.772;8.846;2023-06-26T01:11:58;8.70;;;8.20;;
253;SDS011;590;48.772;8.846;2023-06-26T01:14:27;9.13;;;8.63;;
253;SDS011;590;48.772;8.846;2023-06-26T01:16:56;8.17;;;7.77;;
253;SDS011;590;48.772;8.846;2023-06-26T01:19:25;9.40;;;8.90;;
253;SDS011;590;48.772;8.846;2023-06-26T01:21:56;8.87;;;8.37;;
253;SDS011;590;48.772;8.846;2023-06-26T01:24:32;8.90;;;8.40;;
253;SDS011;590;48.772;8.846;2023-06-26T01:27:04;8.87;;;8.37;;
253;SDS011;590;48.772;8.846;2023-06-26T01:29:33;9.43;;;8.93;;
253;SDS011;590;48.772;8.846;2023-06-26T01:32:02;8.23;;;7.83;;
253;SDS011;590;48.772;8.846;2023-06-26T01:34:31;7.93;;;7.53;;
253;SDS011;590;48.772;8.846;2023-06-26T01:36:59;8.60;;;8.10;;
253;SDS011;590;48.772;8.846;2023-06-26T01:39:27;7.97;;;7.33;;
253;SDS011;590;48.772;8.846;2023-06-26T01:41:55;9.03;;;8.53;;
253;SDS011;590;48.772;8.846;2023-06-26T01:44:28;8.80;;;8.30;;
253;SDS011;590;48.772;8.846;2023-06-26T01:46:59;8.80;;;8.30;;
253;SDS011;590;48.772;8.846;2023-06-26T01:49:30;8.90;;;8.40;;
253;SDS011;590;48.772;8.846;2023-06-26T01:52:07;10.20;;;9.70;;
253;SDS011;590;48.772;8.846;2023-06-26T01:54:42;8.57;;;8.07;;
253;SDS011;590;48.772;8.846;2023-06-26T01:57:18;9.17;;;8.67;;
253;SDS011;590;48.772;8.846;2023-06-26T01:59:51;8.57;;;8.07;;
253;SDS011;590;48.772;8.846;2023-06-26T02:02:19;8.90;;;8.40;;
253;SDS011;590;48.772;8.846;2023-06-26T02:04:48;8.90;;;7.80;;
253;SDS011;590;48.772;8.846;2023-06-26T02:07:16;8.77;;;8.27;;
253;SDS011;590;48.772;8.846;2023-06-26T02:09:44;8.70;;;8.20;;
253;SDS011;590;48.772;8.846;2023-06-26T02:12:12;9.60;;;9.10;;
253;SDS011;590;48.772;8.846;2023-06-26T02:14:40;8.30;;;7.90;;
253;SDS011;590;48.772;8.846;2023-06-26T02:17:09;8.70;;;8.20;;
253;SDS011;590;48.772;8.846;2023-06-26T02:19:37;9.07;;;8.57;;
253;SDS011;590;48.772;8.846;2023-06-26T02:22:11;8.63;;;8.13;;
253;SDS011;590;48.772;8.846;2023-06-26T02:24:39;8.60;;;8.10;;
253;SDS011;590;48.772;8.846;2023-06-26T02:27:07;8.60;;;8.10;;
253;SDS011;590;48.772;8.846;2023-06-26T02:29:35;8.43;;;7.97;;
253;SDS011;590;48.772;8.846;2023-06-26T02:32:04;9.97;;;8.17;;
253;SDS011;590;48.772;8.846;2023-06-26T02:34:34;8.90;;;8.40;;
253;SDS011;590;48.772;8.846;2023-06-26T02:37:02;8.70;;;8.20;;
253;SDS011;590;48.772;8.846;2023-06-26T02:39:33;8.90;;;8.40;;
253;SDS011;590;48.772;8.846;2023-06-26T02:42:01;9.73;;;9.23;;
253;SDS011;590;48.772;8.846;2023-06-26T02:44:29;9.17;;;8.67;;
253;SDS011;590;48.772;8.846;2023-06-26T02:46:57;9.47;;;8.97;;
253;SDS011;590;48.772;8.846;2023-06-26T02:49:25;9.00;;;8.50;;
253;SDS011;590;48.772;8.846;2023-06-26T02:51:54;9.13;;;8.63;;
253;SDS011;590;48.772;8.846;2023-06-26T02:54:22;8.60;;;8.10;;
253;SDS011;590;48.772;8.846;2023-06-26T02:56:50;8.00;;;7.60;;
253;SDS011;590;48.772;8.846;2023-06-26T02:59:18;10.00;;;9.13;;
253;SDS011;590;48.772;8.846;2023-06-26T03:01:46;8.90;;;8.40;;
253;SDS011;590;48.772;8.846;2023-06-26T03:04:14;9.03;;;8.53;;
253;SDS011;590;48.772;8.846;2023-06-26T03:06:44;9.40;;;8.90;;
253;SDS011;590;48.772;8.846;2023-06-26T03:09:13;8.13;;;7.73;;
253;SDS011;590;48.772;8.846;2023-06-26T03:11:42;8.10;;;7.70;;
253;SDS011;590;48.772;8.846;2023-06-26T03:14:10;8.70;;;8.20;;
253;SDS011;590;48.772;8.846;2023-06-26T03:16:38;8.63;;;8.13;;
253;SDS011;590;48.772;8.846;2023-06-26T03:19:07;8.07;;;7.67;;
253;SDS011;590;48.772;8.846;2023-06-26T03:21:35;7.60;;;7.23;;
253;SDS011;590;48.772;8.846;2023-06-26T03:24:03;9.00;;;7.70;;
253;SDS011;590;48.772;8.846;2023-06-26T03:26:33;10.13;;;9.63;;
253;SDS011;590;48.772;8.846;2023-06-26T03:29:01;9.63;;;8.60;;
253;SDS011;590;48.772;8.846;2023-06-26T03:31:29;9.00;;;8.50;;
253;SDS011;590;48.772;8.846;2023-06-26T03:33:57;8.60;;;8.10;;
253;SDS011;590;48.772;8.846;2023-06-26T03:36:25;9.73;;;9.27;;
253;SDS011;590;48.772;8.846;2023-06-26T03:38:53;10.10;;;9.60;;
253;SDS011;590;48.772;8.846;2023-06-26T03:41:23;9.30;;;8.80;;
253;SDS011;590;48.772;8.846;2023-06-26T03:43:52;9.30;;;8.80;;
253;SDS011;590;48.772;8.846;2023-06-26T03:46:22;9.37;;;8.87;;
253;SDS011;590;48.772;8.846;2023-06-26T03:48:50;8.97;;;8.47;;
253;SDS011;590;48.772;8.846;2023-06-26T03:51:18;9.30;;;8.80;;
253;SDS011;590;48.772;8.846;2023-06-26T03:53:47;8.93;;;8.43;;
253;SDS011;590;48.772;8.846;2023-06-26T03:56:15;9.57;;;9.07;;
253;SDS011;590;48.772;8.846;2023-06-26T03:58:43;9.20;;;8.70;;
253;SDS011;590;48.772;8.846;2023-06-26T04:01:12;9.53;;;9.03;;
253;SDS011;590;48.772;8.846;2023-06-26T04:03:40;9.30;;;8.80;;
253;SDS011;590;48.772;8.846;2023-06-26T04:06:08;9.13;;;8.63;;
253;SDS011;590;48.772;8.846;2023-06-26T04:08:37;8.43;;;7.90;;
253;SDS011;590;48.772;8.846;2023-06-26T04:11:04;9.37;;;8.37;;
253;SDS011;590;48.772;8.846;2023-06-26T04:13:33;8.37;;;7.80;;
253;SDS011;590;48.772;8.846;2023-06-26T04:16:01;7.80;;;7.40;;
253;SDS011;590;48.772;8.846;2023-06-26T04:18:30;8.30;;;7.67;;
253;SDS011;590;48.772;8.846;2023-06-26T04:21:06;7.77;;;7.37;;
253;SDS011;590;48.772;8.846;2023-06-26T04:23:35;10.40;;;7.40;;
253;SDS011;590;48.772;8.846;2023-06-26T04:26:03;8.00;;;7.50;;
253;SDS011;590;48.772;8.846;2023-06-26T04:28:32;8.07;;;7.67;;
253;SDS011;590;48.772;8.846;2023-06-26T04:31:01;7.60;;;7.20;;
253;SDS011;590;48.772;8.846;2023-06-26T04:33:31;7.37;;;6.97;;
253;SDS011;590;48.772;8.846;2023-06-26T04:35:59;6.93;;;6.53;;
253;SDS011;590;48.772;8.846;2023-06-26T04:38:30;7.63;;;7.00;;
253;SDS011;590;48.772;8.846;2023-06-26T04:40:58;8.80;;;8.30;;
253;SDS011;590;48.772;8.846;2023-06-26T04:43:26;9.00;;;8.50;;
253;SDS011;590;48.772;8.846;2023-06-26T04:45:54;8.87;;;8.37;;
253;SDS011;590;48.772;8.846;2023-06-26T04:48:23;8.80;;;7.93;;
253;SDS011;590;48.772;8.846;2023-06-26T04:50:55;8.17;;;7.77;;
253;SDS011;590;48.772;8.846;2023-06-26T04:53:25;8.67;;;8.17;;
253;SDS011;590;48.772;8.846;2023-06-26T04:55:53;8.83;;;8.33;;
253;SDS011;590;48.772;8.846;2023-06-26T04:58:21;8.67;;;8.17;;
253;SDS011;590;48.772;8.846;2023-06-26T05:00:49;9.37;;;8.87;;
253;SDS011;590;48.772;8.846;2023-06-26T05:03:17;9.87;;;9.37;;
253;SDS011;590;48.772;8.846;2023-06-26T05:05:46;8.47;;;8.00;;
253;SDS011;590;48.772;8.846;2023-06-26T05:08:15;9.27;;;7.97;;
253;SDS011;590;48.772;8.846;2023-06-26T05:10:44;7.97;;;7.57;;
253;SDS011;590;48.772;8.846;2023-06-26T05:13:13;8.30;;;7.90;;
253;SDS011;590;48.772;8.846;2023-06-26T05:15:44;8.60;;;8.10;;
253;SDS011;590;48.772;8.846;2023-06-26T05:18:12;9.17;;;8.67;;
253;SDS011;590;48.772;8.846;2023-06-26T05:20:40;8.70;;;8.20;;
253;SDS011;590;48.772;8.846;2023-06-26T05:23:08;8.87;;;8.37;;
253;SDS011;590;48.772;8.846;2023-06-26T05:25:40;8.23;;;7.83;;
253;SDS011;590;48.772;8.846;2023-06-26T05:28:09;7.50;;;7.10;;
253;SDS011;590;48.772;8.846;2023-06-26T05:30:38;8.57;;;7.97;;
253;SDS011;590;48.772;8.846;2023-06-26T05:33:08;9.17;;;8.67;;
253;SDS011;590;48.772;8.846;2023-06-26T05:35:39;8.43;;;7.97;;
253;SDS011;590;48.772;8.846;2023-06-26T05:38:08;8.57;;;8.07;;
253;SDS011;590;48.772;8.846;2023-06-26T05:40:37;8.97;;;8.47;;
253;SDS011;590;48.772;8.846;2023-06-26T05:43:08;8.87;;;8.37;;
253;SDS011;590;48.772;8.846;2023-06-26T05:45:37;9.13;;;8.63;;
253;SDS011;590;48.772;8.846;2023-06-26T05:48:05;9.43;;;8.93;;
253;SDS011;590;48.772;8.846;2023-06-26T05:50:33;8.00;;;7.60;;
253;SDS011;590;48.772;8.846;2023-06-26T05:53:02;8.50;;;8.00;;
253;SDS011;590;48.772;8.846;2023-06-26T05:55:32;8.80;;;8.30;;
253;SDS011;590;48.772;8.846;2023-06-26T05:58:00;8.00;;;7.60;;
253;SDS011;590;48.772;8.846;2023-06-26T06:00:31;8.53;;;8.03;;
253;SDS011;590;48.772;8.846;2023-06-26T06:02:59;8.50;;;8.00;;
253;SDS011;590;48.772;8.846;2023-06-26T06:05:27;8.10;;;7.70;;
253;SDS011;590;48.772;8.846;2023-06-26T06:07:55;8.07;;;7.57;;
253;SDS011;590;48.772;8.846;2023-06-26T06:10:23;8.20;;;7.80;;
253;SDS011;590;48.772;8.846;2023-06-26T06:12:51;8.47;;;8.00;;
253;SDS011;590;48.772;8.846;2023-06-26T06:15:42;8.33;;;7.90;;
253;SDS011;590;48.772;8.846;2023-06-26T06:18:10;7.20;;;6.80;;
253;SDS011;590;48.772;8.846;2023-06-26T06:20:38;8.43;;;7.97;;
253;SDS011;590;48.772;8.846;2023-06-26T06:23:06;8.47;;;8.00;;
253;SDS011;590;48.772;8.846;2023-06-26T06:25:34;8.70;;;8.20;;
253;SDS011;590;48.772;8.846;2023-06-26T06:28:03;8.47;;;8.00;;
253;SDS011;590;48.772;8.846;2023-06-26T06:30:32;8.27;;;7.87;;
253;SDS011;590;48.772;8.846;2023-06-26T06:33:13;7.70;;;7.30;;
253;SDS011;590;48.772;8.846;2023-06-26T06:35:41;7.50;;;7.10;;
253;SDS011;590;48.772;8.846;2023-06-26T06:38:09;7.43;;;7.03;;
253;SDS011;590;48.772;8.846;2023-06-26T06:40:37;7.93;;;7.53;;
253;SDS011;590;48.772;8.846;2023-06-26T06:43:05;6.97;;;6.57;;
253;SDS011;590;48.772;8.846;2023-06-26T06:45:33;7.30;;;6.90;;
253;SDS011;590;48.772;8.846;2023-06-26T06:48:02;7.90;;;7.50;;
253;SDS011;590;48.772;8.846;2023-06-26T06:50:32;6.13;;;5.83;;
253;SDS011;590;48.772;8.846;2023-06-26T06:53:00;6.07;;;5.77;;
253;SDS011;590;48.772;8.846;2023-06-26T06:55:29;5.60;;;5.30;;
253;SDS011;590;48.772;8.846;2023-06-26T06:57:57;5.30;;;5.03;;
253;SDS011;590;48.772;8.846;2023-06-26T07:00:25;5.33;;;5.03;;
253;SDS011;590;48.772;8.846;2023-06-26T07:02:53;5.80;;;5.50;;
253;SDS011;590;48.772;8.846;2023-06-26T07:05:23;5.90;;;5.60;;
253;SDS011;590;48.772;8.846;2023-06-26T07:07:52;6.03;;;5.73;;
253;SDS011;590;48.772;8.846;2023-06-26T07:10:20;5.90;;;5.60;;
253;SDS011;590;48.772;8.846;2023-06-26T07:12:48;5.57;;;5.27;;
253;SDS011;590;48.772;8.846;2023-06-26T07:15:16;5.27;;;4.97;;
253;SDS011;590;48.772;8.846;2023-06-26T07:17:44;5.40;;;5.10;;
253;SDS011;590;48.772;8.846;2023-06-26T07:20:12;5.93;;;5.63;;
253;SDS011;590;48.772;8.846;2023-06-26T07:22:42;5.20;;;4.90;;
253;SDS011;590;48.772;8.846;2023-06-26T07:25:12;5.43;;;5.13;;
253;SDS011;590;48.772;8.846;2023-06-26T07:27:41;5.13;;;4.83;;
253;SDS011;590;48.772;8.846;2023-06-26T07:30:10;5.70;;;5.40;;
253;SDS011;590;48.772;8.846;2023-06-26T07:32:39;5.03;;;4.73;;
253;SDS011;590;48.772;8.846;2023-06-26T07:35:08;5.50;;;5.20;;
253;SDS011;590;48.772;8.846;2023-06-26T07:37:36;5.20;;;4.90;;
253;SDS011;590;48.772;8.846;2023-06-26T07:40:05;5.17;;;4.87;;
253;SDS011;590;48.772;8.846;2023-06-26T07:42:34;4.80;;;4.50;;
253;SDS011;590;48.772;8.846;2023-06-26T07:45:03;6.27;;;5.93;;
253;SDS011;590;48.772;8.846;2023-06-26T07:47:36;5.30;;;5.00;;
253;SDS011;590;48.772;8.846;2023-06-26T07:50:04;5.17;;;4.87;;
253;SDS011;590;48.772;8.846;2023-06-26T07:52:32;5.10;;;4.80;;
253;SDS011;590;48.772;8.846;2023-06-26T07:55:01;4.70;;;4.40;;
253;SDS011;590;48.772;8.846;2023-06-26T07:57:30;5.13;;;4.83;;
253;SDS011;590;48.772;8.846;2023-06-26T08:00:00;5.17;;;4.87;;
253;SDS011;590;48.772;8.846;2023-06-26T08:02:28;5.43;;;4.60;;
253;SDS011;590;48.772;8.846;2023-06-26T08:04:56;5.37;;;5.07;;
253;SDS011;590;48.772;8.846;2023-06-26T08:07:24;5.50;;;5.20;;
253;SDS011;590;48.772;8.846;2023-06-26T08:09:52;5.37;;;5.07;;
253;SDS011;590;48.772;8.846;2023-06-26T08:12:20;5.20;;;4.90;;
253;SDS011;590;48.772;8.846;2023-06-26T08:14:57;5.40;;;5.10;;
253;SDS011;590;48.772;8.846;2023-06-26T08:17:29;5.70;;;5.40;;
253;SDS011;590;48.772;8.846;2023-06-26T08:19:57;5.97;;;5.67;;
253;SDS011;590;48.772;8.846;2023-06-26T08:22:25;5.30;;;5.00;;
253;SDS011;590;48.772;8.846;2023-06-26T08:24:53;5.40;;;5.10;;
253;SDS011;590;48.772;8.846;2023-06-26T08:27:21;5.40;;;5.10;;
253;SDS011;590;48.772;8.846;2023-06-26T08:29:49;5.77;;;5.47;;
253;SDS011;590;48.772;8.846;2023-06-26T08:32:18;6.33;;;5.97;;
253;SDS011;590;48.772;8.846;2023-06-26T08:34:46;5.83;;;5.53;;
253;SDS011;590;48.772;8.846;2023-06-26T08:37:14;5.33;;;5.03;;
253;SDS011;590;48.772;8.846;2023-06-26T08:39:42;7.83;;;6.00;;
253;SDS011;590;48.772;8.846;2023-06-26T08:42:10;4.97;;;4.67;;
253;SDS011;590;48.772;8.846;2023-06-26T08:44:41;5.53;;;5.23;;
253;SDS011;590;48.772;8.846;2023-06-26T08:47:28;5.60;;;5.30;;
253;SDS011;590;48.772;8.846;2023-06-26T08:50:00;5.60;;;5.30;;
253;SDS011;590;48.772;8.846;2023-06-26T08:52:35;5.37;;;5.07;;
253;SDS011;590;48.772;8.846;2023-06-26T08:55:06;5.87;;;5.57;;
253;SDS011;590;48.772;8.846;2023-06-26T08:57:37;5.77;;;5.47;;
253;SDS011;590;48.772;8.846;2023-06-26T09:00:07;5.47;;;5.17;;
253;SDS011;590;48.772;8.846;2023-06-26T09:02:37;5.70;;;5.40;;
253;SDS011;590;48.772;8.846;2023-06-26T09:05:09;5.73;;;5.43;;
253;SDS011;590;48.772;8.846;2023-06-26T09:07:38;5.57;;;5.27;;
253;SDS011;590;48.772;8.846;2023-06-26T09:10:07;6.10;;;5.80;;
253;SDS011;590;48.772;8.846;2023-06-26T09:12:36;5.90;;;5.60;;
253;SDS011;590;48.772;8.846;2023-06-26T09:15:05;6.33;;;5.97;;
253;SDS011;590;48.772;8.846;2023-06-26T09:17:38;6.60;;;6.20;;
253;SDS011;590;48.772;8.846;2023-06-26T09:20:08;5.47;;;5.17;;
253;SDS011;590;48.772;8.846;2023-06-26T09:22:37;6.00;;;5.70;;
253;SDS011;590;48.772;8.846;2023-06-26T09:25:08;5.97;;;5.67;;
253;SDS011;590;48.772;8.846;2023-06-26T09:27:37;5.63;;;5.33;;
253;SDS011;590;48.772;8.846;2023-06-26T09:30:05;6.00;;;5.70;;
253;SDS011;590;48.772;8.846;2023-06-26T09:32:35;6.07;;;5.77;;
253;SDS011;590;48.772;8.846;2023-06-26T09:35:05;5.40;;;5.10;;
253;SDS011;590;48.772;8.846;2023-06-26T09:37:34;6.50;;;6.10;;
253;SDS011;590;48.772;8.846;2023-06-26T09:40:02;6.37;;;6.00;;
253;SDS011;590;48.772;8.846;2023-06-26T09:42:31;5.70;;;5.40;;
253;SDS011;590;48.772;8.846;2023-06-26T09:44:59;6.20;;;5.90;;
253;SDS011;590;48.772;8.846;2023-06-26T09:47:29;6.03;;;5.73;;
253;SDS011;590;48.772;8.846;2023-06-26T09:49:58;6.53;;;6.13;;
253;SDS011;590;48.772;8.846;2023-06-26T09:52:27;6.80;;;6.40;;
253;SDS011;590;48.772;8.846;2023-06-26T09:55:06;6.80;;;6.40;;
253;SDS011;590;48.772;8.846;2023-06-26T09:57:35;7.30;;;6.90;;
253;SDS011;590;48.772;8.846;2023-06-26T10:00:03;7.60;;;7.20;;
253;SDS011;590;48.772;8.846;2023-06-26T10:02:35;7.60;;;7.20;;
253;SDS011;590;48.772;8.846;2023-06-26T10:05:03;7.50;;;7.10;;
253;SDS011;590;48.772;8.846;2023-06-26T10:07:33;7.87;;;7.43;;
253;SDS011;590;48.772;8.846;2023-06-26T10:10:02;7.03;;;6.63;;
253;SDS011;590;48.772;8.846;2023-06-26T10:12:32;7.70;;;7.30;;
253;SDS011;590;48.772;8.846;2023-06-26T10:15:02;6.90;;;6.50;;
253;SDS011;590;48.772;8.846;2023-06-26T10:17:32;7.30;;;6.90;;
253;SDS011;590;48.772;8.846;2023-06-26T10:20:03;7.57;;;7.17;;
253;SDS011;590;48.772;8.846;2023-06-26T10:22:37;10.57;;;7.07;;
253;SDS011;590;48.772;8.846;2023-06-26T10:25:10;8.27;;;7.83;;
253;SDS011;590;48.772;8.846;2023-06-26T10:27:40;8.53;;;8.03;;
253;SDS011;590;48.772;8.846;2023-06-26T10:30:16;7.50;;;7.10;;
253;SDS011;590;48.772;8.846;2023-06-26T10:32:47;7.20;;;6.80;;
253;SDS011;590;48.772;8.846;2023-06-26T10:35:16;7.20;;;6.80;;
253;SDS011;590;48.772;8.846;2023-06-26T10:37:46;7.80;;;7.40;;
253;SDS011;590;48.772;8.846;2023-06-26T10:40:20;7.90;;;7.50;;
253;SDS011;590;48.772;8.846;2023-06-26T10:42:49;7.53;;;7.13;;
253;SDS011;590;48.772;8.846;2023-06-26T10:45:18;7.80;;;7.40;;
253;SDS011;590;48.772;8.846;2023-06-26T10:47:48;7.27;;;6.87;;
253;SDS011;590;48.772;8.846;2023-06-26T10:50:20;8.13;;;7.73;;
253;SDS011;590;48.772;8.846;2023-06-26T10:55:47;7.27;;;6.87;;
253;SDS011;590;48.772;8.846;2023-06-26T10:58:26;8.17;;;7.77;;
253;SDS011;590;48.772;8.846;2023-06-26T11:01:13;7.80;;;7.40;;
253;SDS011;590;48.772;8.846;2023-06-26T11:03:43;8.00;;;7.60;;
253;SDS011;590;48.772;8.846;2023-06-26T11:06:13;7.80;;;7.40;;
253;SDS011;590;48.772;8.846;2023-06-26T11:08:46;8.53;;;8.03;;
253;SDS011;590;48.772;8.846;2023-06-26T11:11:15;7.93;;;7.53;;
253;SDS011;590;48.772;8.846;2023-06-26T11:13:44;8.50;;;8.00;;
253;SDS011;590;48.772;8.846;2023-06-26T11:16:13;7.87;;;7.47;;
253;SDS011;590;48.772;8.846;2023-06-26T11:18:42;7.20;;;6.80;;
253;SDS011;590;48.772;8.846;2023-06-26T11:21:12;8.57;;;8.07;;
253;SDS011;590;48.772;8.846;2023-06-26T11:23:41;7.97;;;7.60;;
253;SDS011;590;48.772;8.846;2023-06-26T11:26:17;7.40;;;7.00;;
253;SDS011;590;48.772;8.846;2023-06-26T11:28:48;7.83;;;7.43;;
253;SDS011;590;48.772;8.846;2023-06-26T11:31:26;6.77;;;6.37;;
253;SDS011;590;48.772;8.846;2023-06-26T11:33:54;7.40;;;7.00;;
253;SDS011;590;48.772;8.846;2023-06-26T11:36:23;7.40;;;7.00;;
253;SDS011;590;48.772;8.846;2023-06-26T11:38:52;7.30;;;6.90;;
253;SDS011;590;48.772;8.846;2023-06-26T11:41:22;6.60;;;6.20;;
253;SDS011;590;48.772;8.846;2023-06-26T11:43:51;6.80;;;6.40;;
253;SDS011;590;48.772;8.846;2023-06-26T11:46:21;7.63;;;7.23;;
253;SDS011;590;48.772;8.846;2023-06-26T11:48:50;7.20;;;6.80;;
253;SDS011;590;48.772;8.846;2023-06-26T11:51:18;6.87;;;6.47;;
253;SDS011;590;48.772;8.846;2023-06-26T11:53:46;7.23;;;6.83;;
253;SDS011;590;48.772;8.846;2023-06-26T11:56:16;7.50;;;7.10;;
253;SDS011;590;48.772;8.846;2023-06-26T11:58:58;6.37;;;6.00;;
253;SDS011;590;48.772;8.846;2023-06-26T12:01:30;7.20;;;6.80;;
253;SDS011;590;48.772;8.846;2023-06-26T12:04:00;7.40;;;7.00;;
253;SDS011;590;48.772;8.846;2023-06-26T12:06:31;6.83;;;6.43;;
253;SDS011;590;48.772;8.846;2023-06-26T12:09:00;7.00;;;6.60;;
253;SDS011;590;48.772;8.846;2023-06-26T12:11:31;7.10;;;6.70;;
253;SDS011;590;48.772;8.846;2023-06-26T12:14:01;7.90;;;7.50;;
253;SDS011;590;48.772;8.846;2023-06-26T12:16:30;7.20;;;6.80;;
253;SDS011;590;48.772;8.846;2023-06-26T12:19:00;7.27;;;6.87;;
253;SDS011;590;48.772;8.846;2023-06-26T12:21:42;6.97;;;6.57;;
253;SDS011;590;48.772;8.846;2023-06-26T12:24:19;7.50;;;7.10;;
253;SDS011;590;48.772;8.846;2023-06-26T12:26:49;7.67;;;7.27;;
253;SDS011;590;48.772;8.846;2023-06-26T12:29:21;7.10;;;6.70;;
253;SDS011;590;48.772;8.846;2023-06-26T12:31:49;6.57;;;6.17;;
253;SDS011;590;48.772;8.846;2023-06-26T12:34:19;7.20;;;6.80;;
253;SDS011;590;48.772;8.846;2023-06-26T12:36:49;6.57;;;6.17;;
253;SDS011;590;48.772;8.846;2023-06-26T12:39:18;6.80;;;6.40;;
253;SDS011;590;48.772;8.846;2023-06-26T12:41:48;6.73;;;6.33;;
253;SDS011;590;48.772;8.846;2023-06-26T12:44:21;6.40;;;6.00;;
253;SDS011;590;48.772;8.846;2023-06-26T12:46:53;6.07;;;5.77;;
253;SDS011;590;48.772;8.846;2023-06-26T12:49:28;6.70;;;6.30;;
253;SDS011;590;48.772;8.846;2023-06-26T12:51:59;5.80;;;5.50;;
253;SDS011;590;48.772;8.846;2023-06-26T12:54:27;6.10;;;5.80;;
253;SDS011;590;48.772;8.846;2023-06-26T12:56:55;5.63;;;5.33;;
253;SDS011;590;48.772;8.846;2023-06-26T12:59:24;6.50;;;6.10;;
253;SDS011;590;48.772;8.846;2023-06-26T13:01:52;5.27;;;4.97;;
253;SDS011;590;48.772;8.846;2023-06-26T13:04:21;5.57;;;5.27;;
253;SDS011;590;48.772;8.846;2023-06-26T13:06:49;5.90;;;5.60;;
253;SDS011;590;48.772;8.846;2023-06-26T13:09:17;6.40;;;6.00;;
253;SDS011;590;48.772;8.846;2023-06-26T13:11:45;5.50;;;5.20;;
253;SDS011;590;48.772;8.846;2023-06-26T13:14:13;5.23;;;4.93;;
253;SDS011;590;48.772;8.846;2023-06-26T13:16:43;5.70;;;5.40;;
253;SDS011;590;48.772;8.846;2023-06-26T13:19:11;6.10;;;5.80;;
253;SDS011;590;48.772;8.846;2023-06-26T13:21:39;5.60;;;5.30;;
253;SDS011;590;48.772;8.846;2023-06-26T13:24:08;6.73;;;6.33;;
253;SDS011;590;48.772;8.846;2023-06-26T13:26:36;5.40;;;5.10;;
253;SDS011;590;48.772;8.846;2023-06-26T13:29:04;4.80;;;4.50;;
253;SDS011;590;48.772;8.846;2023-06-26T13:31:32;4.67;;;4.37;;
253;SDS011;590;48.772;8.846;2023-06-26T13:34:02;5.03;;;4.73;;
253;SDS011;590;48.772;8.846;2023-06-26T13:36:31;6.40;;;6.00;;
253;SDS011;590;48.772;8.846;2023-06-26T13:39:01;5.47;;;5.17;;
253;SDS011;590;48.772;8.846;2023-06-26T13:41:29;5.33;;;5.03;;
253;SDS011;590;48.772;8.846;2023-06-26T13:43:57;5.13;;;4.83;;
253;SDS011;590;48.772;8.846;2023-06-26T13:46:36;5.07;;;4.77;;
253;SDS011;590;48.772;8.846;2023-06-26T13:49:06;4.50;;;4.20;;
253;SDS011;590;48.772;8.846;2023-06-26T13:51:34;4.43;;;4.13;;
253;SDS011;590;48.772;8.846;2023-06-26T13:54:02;3.90;;;3.70;;
253;SDS011;590;48.772;8.846;2023-06-26T13:56:30;4.60;;;4.30;;
253;SDS011;590;48.772;8.846;2023-06-26T13:58:58;4.27;;;4.00;;
253;SDS011;590;48.772;8.846;2023-06-26T14:01:26;4.33;;;4.03;;
253;SDS011;590;48.772;8.846;2023-06-26T14:03:54;3.80;;;3.60;;
253;SDS011;590;48.772;8.846;2023-06-26T14:06:23;3.80;;;3.60;;
253;SDS011;590;48.772;8.846;2023-06-26T14:08:51;4.33;;;4.03;;
253;SDS011;590;48.772;8.846;2023-06-26T14:11:19;4.47;;;4.17;;
253;SDS011;590;48.772;8.846;2023-06-26T14:13:49;4.30;;;4.00;;
253;SDS011;590;48.772;8.846;2023-06-26T14:16:16;4.33;;;4.03;;
253;SDS011;590;48.772;8.846;2023-06-26T14:18:45;4.30;;;4.00;;
253;SDS011;590;48.772;8.846;2023-06-26T14:21:13;4.63;;;4.33;;
253;SDS011;590;48.772;8.846;2023-06-26T14:23:43;4.17;;;3.93;;
253;SDS011;590;48.772;8.846;2023-06-26T14:26:11;3.60;;;3.30;;
253;SDS011;590;48.772;8.846;2023-06-26T14:28:39;3.90;;;3.70;;
253;SDS011;590;48.772;8.846;2023-06-26T14:31:07;5.90;;;4.67;;
253;SDS011;590;48.772;8.846;2023-06-26T14:33:35;4.90;;;4.37;;
253;SDS011;590;48.772;8.846;2023-06-26T14:36:04;3.87;;;3.67;;
253;SDS011;590;48.772;8.846;2023-06-26T14:38:32;4.77;;;3.60;;
253;SDS011;590;48.772;8.846;2023-06-26T14:41:01;4.80;;;4.50;;
253;SDS011;590;48.772;8.846;2023-06-26T14:43:29;4.70;;;4.40;;
253;SDS011;590;48.772;8.846;2023-06-26T14:45:58;5.20;;;4.90;;
253;SDS011;590;48.772;8.846;2023-06-26T14:48:26;5.03;;;4.73;;
253;SDS011;590;48.772;8.846;2023-06-26T14:50:56;5.37;;;5.07;;
253;SDS011;590;48.772;8.846;2023-06-26T14:53:26;5.93;;;5.63;;
253;SDS011;590;48.772;8.846;2023-06-26T14:55:54;5.23;;;4.93;;
253;SDS011;590;48.772;8.846;2023-06-26T14:58:23;6.13;;;5.83;;
253;SDS011;590;48.772;8.846;2023-06-26T15:00:51;7.83;;;5.20;;
253;SDS011;590;48.772;8.846;2023-06-26T15:03:19;5.80;;;5.50;;
253;SDS011;590;48.772;8.846;2023-06-26T15:05:47;6.07;;;5.77;;
253;SDS011;590;48.772;8.846;2023-06-26T15:08:16;5.77;;;5.47;;
253;SDS011;590;48.772;8.846;2023-06-26T15:10:44;5.37;;;5.07;;
253;SDS011;590;48.772;8.846;2023-06-26T15:13:11;5.73;;;4.93;;
253;SDS011;590;48.772;8.846;2023-06-26T15:15:41;7.20;;;6.43;;
253;SDS011;590;48.772;8.846;2023-06-26T15:18:09;5.97;;;5.67;;
253;SDS011;590;48.772;8.846;2023-06-26T15:20:37;6.90;;;6.50;;
253;SDS011;590;48.772;8.846;2023-06-26T15:23:05;7.70;;;7.30;;
253;SDS011;590;48.772;8.846;2023-06-26T15:25:33;6.93;;;6.53;;
253;SDS011;590;48.772;8.846;2023-06-26T15:28:03;6.80;;;6.40;;
253;SDS011;590;48.772;8.846;2023-06-26T15:30:31;7.63;;;6.03;;
253;SDS011;590;48.772;8.846;2023-06-26T15:33:01;6.43;;;6.03;;
253;SDS011;590;48.772;8.846;2023-06-26T15:35:29;6.20;;;5.90;;
253;SDS011;590;48.772;8.846;2023-06-26T15:37:58;7.23;;;6.80;;
253;SDS011;590;48.772;8.846;2023-06-26T15:40:26;8.13;;;7.70;;
253;SDS011;590;48.772;8.846;2023-06-26T15:42:54;7.63;;;7.23;;
253;SDS011;590;48.772;8.846;2023-06-26T15:45:22;7.67;;;7.27;;
253;SDS011;590;48.772;8.846;2023-06-26T15:47:51;7.57;;;7.10;;
253;SDS011;590;48.772;8.846;2023-06-26T15:50:21;8.30;;;7.27;;
253;SDS011;590;48.772;8.846;2023-06-26T15:52:49;7.40;;;7.00;;
253;SDS011;590;48.772;8.846;2023-06-26T15:55:17;7.97;;;7.57;;
253;SDS011;590;48.772;8.846;2023-06-26T15:57:45;8.23;;;7.83;;
253;SDS011;590;48.772;8.846;2023-06-26T16:00:13;7.03;;;6.63;;